sensor_id;sensor_type;location;lat;lon;timestamp;P1;durP1;ratioP1;P2;durP2;ratioP2
43509;SDS011;29105;57.764;40.952;2023-03-24T00:01:49;7.30;;;4.10;;
43509;SDS011;29105;57.764;40.952;2023-03-24T00:04:15;9.00;;;4.65;;
43509;SDS011;29105;57.764;40.952;2023-03-24T00:06:41;8.57;;;5.47;;
43509;SDS011;29105;57.764;40.952;2023-03-24T00:09:07;6.65;;;3.22;;
43509;SDS011;29105;57.764;40.952;2023-03-24T00:11:33;9.65;;;5.15;;
43509;SDS011;29105;57.764;40.952;2023-03-24T00:14:00;10.80;;;5.30;;
43509;SDS011;29105;57.764;40.952;2023-03-24T00:16:27;7.55;;;3.67;;
43509;SDS011;29105;57.764;40.952;2023-03-24T00:18:53;7.93;;;4.22;;
43509;SDS011;29105;57.764;40.952;2023-03-24T00:21:19;8.13;;;4.70;;
43509;SDS011;29105;57.764;40.952;2023-03-24T00:23:46;7.45;;;4.65;;
43509;SDS011;29105;57.764;40.952;2023-03-24T00:26:14;5.45;;;3.20;;
43509;SDS011;29105;57.764;40.952;2023-03-24T00:28:42;6.05;;;3.55;;
43509;SDS011;29105;57.764;40.952;2023-03-24T00:31:09;8.55;;;3.72;;
43509;SDS011;29105;57.764;40.952;2023-03-24T00:33:36;6.60;;;4.05;;
43509;SDS011;29105;57.764;40.952;2023-03-24T00:36:02;7.90;;;3.78;;
43509;SDS011;29105;57.764;40.952;2023-03-24T00:38:30;7.47;;;3.47;;
43509;SDS011;29105;57.764;40.952;2023-03-24T00:40:56;11.07;;;5.40;;
43509;SDS011;29105;57.764;40.952;2023-03-24T00:43:23;8.82;;;4.85;;
43509;SDS011;29105;57.764;40.952;2023-03-24T00:45:48;6.20;;;3.28;;
43509;SDS011;29105;57.764;40.952;2023-03-24T00:48:16;8.93;;;4.65;;
43509;SDS011;29105;57.764;40.952;2023-03-24T00:50:44;8.15;;;3.65;;
43509;SDS011;29105;57.764;40.952;2023-03-24T00:53:13;8.00;;;3.50;;
43509;SDS011;29105;57.764;40.952;2023-03-24T00:55:44;5.93;;;2.92;;
43509;SDS011;29105;57.764;40.952;2023-03-24T00:58:12;13.48;;;6.18;;
43509;SDS011;29105;57.764;40.952;2023-03-24T01:00:52;8.45;;;4.72;;
43509;SDS011;29105;57.764;40.952;2023-03-24T01:03:19;9.95;;;4.35;;
43509;SDS011;29105;57.764;40.952;2023-03-24T01:05:46;7.78;;;4.03;;
43509;SDS011;29105;57.764;40.952;2023-03-24T01:08:16;8.38;;;3.65;;
43509;SDS011;29105;57.764;40.952;2023-03-24T01:10:48;8.70;;;5.05;;
43509;SDS011;29105;57.764;40.952;2023-03-24T01:13:18;10.98;;;4.53;;
43509;SDS011;29105;57.764;40.952;2023-03-24T01:15:45;7.20;;;4.82;;
43509;SDS011;29105;57.764;40.952;2023-03-24T01:18:12;7.40;;;3.58;;
43509;SDS011;29105;57.764;40.952;2023-03-24T01:20:39;12.82;;;5.80;;
43509;SDS011;29105;57.764;40.952;2023-03-24T01:23:06;8.85;;;4.53;;
43509;SDS011;29105;57.764;40.952;2023-03-24T01:25:32;4.95;;;2.47;;
43509;SDS011;29105;57.764;40.952;2023-03-24T01:28:01;10.63;;;5.07;;
43509;SDS011;29105;57.764;40.952;2023-03-24T01:30:28;8.50;;;4.05;;
43509;SDS011;29105;57.764;40.952;2023-03-24T01:32:54;10.48;;;5.03;;
43509;SDS011;29105;57.764;40.952;2023-03-24T01:35:20;10.18;;;5.97;;
43509;SDS011;29105;57.764;40.952;2023-03-24T01:37:47;6.93;;;3.33;;
43509;SDS011;29105;57.764;40.952;2023-03-24T01:40:15;9.05;;;4.70;;
43509;SDS011;29105;57.764;40.952;2023-03-24T01:42:46;10.50;;;4.35;;
43509;SDS011;29105;57.764;40.952;2023-03-24T01:48:13;10.93;;;6.85;;
43509;SDS011;29105;57.764;40.952;2023-03-24T01:50:42;5.75;;;3.20;;
43509;SDS011;29105;57.764;40.952;2023-03-24T01:53:10;11.85;;;5.63;;
43509;SDS011;29105;57.764;40.952;2023-03-24T01:55:37;11.90;;;4.15;;
43509;SDS011;29105;57.764;40.952;2023-03-24T01:58:03;8.95;;;3.70;;
43509;SDS011;29105;57.764;40.952;2023-03-24T02:00:31;7.97;;;4.28;;
43509;SDS011;29105;57.764;40.952;2023-03-24T02:03:00;6.82;;;3.05;;
43509;SDS011;29105;57.764;40.952;2023-03-24T02:05:31;9.35;;;4.75;;
43509;SDS011;29105;57.764;40.952;2023-03-24T02:08:07;9.07;;;4.28;;
43509;SDS011;29105;57.764;40.952;2023-03-24T02:10:41;6.88;;;3.40;;
43509;SDS011;29105;57.764;40.952;2023-03-24T02:13:07;8.07;;;4.05;;
43509;SDS011;29105;57.764;40.952;2023-03-24T02:15:35;10.35;;;5.97;;
43509;SDS011;29105;57.764;40.952;2023-03-24T02:18:51;9.60;;;4.40;;
43509;SDS011;29105;57.764;40.952;2023-03-24T02:23:54;13.75;;;7.50;;
43509;SDS011;29105;57.764;40.952;2023-03-24T02:40:39;7.10;;;3.30;;
43509;SDS011;29105;57.764;40.952;2023-03-24T02:46:10;11.30;;;5.88;;
43509;SDS011;29105;57.764;40.952;2023-03-24T02:48:56;9.30;;;5.40;;
43509;SDS011;29105;57.764;40.952;2023-03-24T02:52:01;9.43;;;3.95;;
43509;SDS011;29105;57.764;40.952;2023-03-24T02:54:50;11.57;;;4.70;;
43509;SDS011;29105;57.764;40.952;2023-03-24T02:59:52;13.55;;;6.80;;
43509;SDS011;29105;57.764;40.952;2023-03-24T03:02:25;10.88;;;4.53;;
43509;SDS011;29105;57.764;40.952;2023-03-24T03:04:55;10.77;;;5.18;;
43509;SDS011;29105;57.764;40.952;2023-03-24T03:07:25;10.27;;;5.78;;
43509;SDS011;29105;57.764;40.952;2023-03-24T03:09:55;14.63;;;7.43;;
43509;SDS011;29105;57.764;40.952;2023-03-24T03:12:23;13.15;;;6.00;;
43509;SDS011;29105;57.764;40.952;2023-03-24T03:14:51;12.95;;;7.85;;
43509;SDS011;29105;57.764;40.952;2023-03-24T03:17:21;12.73;;;6.53;;
43509;SDS011;29105;57.764;40.952;2023-03-24T03:20:08;13.48;;;6.97;;
43509;SDS011;29105;57.764;40.952;2023-03-24T03:22:41;19.23;;;8.38;;
43509;SDS011;29105;57.764;40.952;2023-03-24T03:25:10;18.20;;;9.10;;
43509;SDS011;29105;57.764;40.952;2023-03-24T03:27:37;15.82;;;8.70;;
43509;SDS011;29105;57.764;40.952;2023-03-24T03:32:32;13.02;;;5.55;;
43509;SDS011;29105;57.764;40.952;2023-03-24T03:35:01;9.13;;;5.22;;
43509;SDS011;29105;57.764;40.952;2023-03-24T03:37:56;18.20;;;9.63;;
43509;SDS011;29105;57.764;40.952;2023-03-24T03:40:48;18.25;;;10.57;;
43509;SDS011;29105;57.764;40.952;2023-03-24T03:43:19;16.13;;;7.55;;
43509;SDS011;29105;57.764;40.952;2023-03-24T03:45:46;20.77;;;11.93;;
43509;SDS011;29105;57.764;40.952;2023-03-24T03:48:12;19.48;;;10.30;;
43509;SDS011;29105;57.764;40.952;2023-03-24T03:50:38;9.60;;;5.10;;
43509;SDS011;29105;57.764;40.952;2023-03-24T03:53:04;17.33;;;6.88;;
43509;SDS011;29105;57.764;40.952;2023-03-24T03:55:30;18.88;;;9.18;;
43509;SDS011;29105;57.764;40.952;2023-03-24T03:57:56;15.63;;;9.20;;
43509;SDS011;29105;57.764;40.952;2023-03-24T04:00:22;15.68;;;8.32;;
43509;SDS011;29105;57.764;40.952;2023-03-24T04:14:01;19.70;;;9.70;;
43509;SDS011;29105;57.764;40.952;2023-03-24T04:16:41;25.25;;;13.60;;
43509;SDS011;29105;57.764;40.952;2023-03-24T04:22:31;20.80;;;10.82;;
43509;SDS011;29105;57.764;40.952;2023-03-24T04:24:55;24.35;;;12.73;;
43509;SDS011;29105;57.764;40.952;2023-03-24T04:28:00;26.10;;;14.18;;
43509;SDS011;29105;57.764;40.952;2023-03-24T04:36:32;22.48;;;10.40;;
43509;SDS011;29105;57.764;40.952;2023-03-24T04:39:06;20.25;;;10.95;;
43509;SDS011;29105;57.764;40.952;2023-03-24T04:41:37;20.30;;;9.60;;
43509;SDS011;29105;57.764;40.952;2023-03-24T04:44:03;19.90;;;9.82;;
43509;SDS011;29105;57.764;40.952;2023-03-24T04:46:29;11.77;;;5.53;;
43509;SDS011;29105;57.764;40.952;2023-03-24T04:48:56;27.77;;;15.32;;
43509;SDS011;29105;57.764;40.952;2023-03-24T04:51:22;13.27;;;6.95;;
43509;SDS011;29105;57.764;40.952;2023-03-24T04:53:48;19.30;;;9.45;;
43509;SDS011;29105;57.764;40.952;2023-03-24T04:58:54;31.52;;;16.90;;
43509;SDS011;29105;57.764;40.952;2023-03-24T05:01:21;14.60;;;8.23;;
43509;SDS011;29105;57.764;40.952;2023-03-24T05:03:47;30.80;;;16.63;;
43509;SDS011;29105;57.764;40.952;2023-03-24T05:06:14;27.40;;;15.52;;
43509;SDS011;29105;57.764;40.952;2023-03-24T05:08:41;34.85;;;16.75;;
43509;SDS011;29105;57.764;40.952;2023-03-24T05:11:06;19.83;;;9.80;;
43509;SDS011;29105;57.764;40.952;2023-03-24T05:13:32;21.58;;;11.50;;
43509;SDS011;29105;57.764;40.952;2023-03-24T05:15:57;35.50;;;16.42;;
43509;SDS011;29105;57.764;40.952;2023-03-24T05:18:23;24.98;;;10.35;;
43509;SDS011;29105;57.764;40.952;2023-03-24T05:20:49;33.50;;;14.88;;
43509;SDS011;29105;57.764;40.952;2023-03-24T05:23:15;33.22;;;15.55;;
43509;SDS011;29105;57.764;40.952;2023-03-24T05:25:41;47.92;;;14.35;;
43509;SDS011;29105;57.764;40.952;2023-03-24T05:28:07;64.20;;;16.90;;
43509;SDS011;29105;57.764;40.952;2023-03-24T05:30:32;39.40;;;17.63;;
43509;SDS011;29105;57.764;40.952;2023-03-24T05:32:58;47.10;;;20.73;;
43509;SDS011;29105;57.764;40.952;2023-03-24T05:35:24;26.55;;;12.68;;
43509;SDS011;29105;57.764;40.952;2023-03-24T05:37:50;35.15;;;17.75;;
43509;SDS011;29105;57.764;40.952;2023-03-24T05:40:16;30.52;;;14.98;;
43509;SDS011;29105;57.764;40.952;2023-03-24T05:42:42;25.23;;;11.93;;
43509;SDS011;29105;57.764;40.952;2023-03-24T05:45:08;27.90;;;14.13;;
43509;SDS011;29105;57.764;40.952;2023-03-24T05:47:35;24.48;;;12.13;;
43509;SDS011;29105;57.764;40.952;2023-03-24T05:50:01;27.27;;;13.80;;
43509;SDS011;29105;57.764;40.952;2023-03-24T05:52:28;30.35;;;15.30;;
43509;SDS011;29105;57.764;40.952;2023-03-24T05:54:53;26.10;;;12.95;;
43509;SDS011;29105;57.764;40.952;2023-03-24T05:57:19;36.88;;;18.20;;
43509;SDS011;29105;57.764;40.952;2023-03-24T05:59:45;28.88;;;14.27;;
43509;SDS011;29105;57.764;40.952;2023-03-24T06:02:11;29.50;;;15.50;;
43509;SDS011;29105;57.764;40.952;2023-03-24T06:04:37;35.58;;;20.17;;
43509;SDS011;29105;57.764;40.952;2023-03-24T06:07:03;30.10;;;16.10;;
43509;SDS011;29105;57.764;40.952;2023-03-24T06:09:29;26.98;;;13.85;;
43509;SDS011;29105;57.764;40.952;2023-03-24T06:12:00;28.67;;;13.85;;
43509;SDS011;29105;57.764;40.952;2023-03-24T06:14:26;35.45;;;19.75;;
43509;SDS011;29105;57.764;40.952;2023-03-24T06:16:53;30.95;;;16.45;;
43509;SDS011;29105;57.764;40.952;2023-03-24T06:19:23;28.10;;;13.68;;
43509;SDS011;29105;57.764;40.952;2023-03-24T06:21:50;26.00;;;12.43;;
43509;SDS011;29105;57.764;40.952;2023-03-24T06:24:16;28.20;;;11.65;;
43509;SDS011;29105;57.764;40.952;2023-03-24T06:26:42;28.08;;;12.05;;
43509;SDS011;29105;57.764;40.952;2023-03-24T06:29:09;25.52;;;10.95;;
43509;SDS011;29105;57.764;40.952;2023-03-24T06:31:35;23.80;;;11.13;;
43509;SDS011;29105;57.764;40.952;2023-03-24T06:34:02;34.42;;;11.55;;
43509;SDS011;29105;57.764;40.952;2023-03-24T06:36:28;23.23;;;9.88;;
43509;SDS011;29105;57.764;40.952;2023-03-24T06:38:54;23.63;;;10.52;;
43509;SDS011;29105;57.764;40.952;2023-03-24T06:41:20;22.10;;;11.52;;
43509;SDS011;29105;57.764;40.952;2023-03-24T06:43:46;22.13;;;10.38;;
43509;SDS011;29105;57.764;40.952;2023-03-24T06:46:12;24.85;;;11.85;;
43509;SDS011;29105;57.764;40.952;2023-03-24T06:48:38;23.60;;;9.77;;
43509;SDS011;29105;57.764;40.952;2023-03-24T06:51:03;21.98;;;11.05;;
43509;SDS011;29105;57.764;40.952;2023-03-24T06:53:29;25.60;;;11.05;;
43509;SDS011;29105;57.764;40.952;2023-03-24T06:55:55;25.73;;;11.57;;
43509;SDS011;29105;57.764;40.952;2023-03-24T06:58:21;27.42;;;11.95;;
43509;SDS011;29105;57.764;40.952;2023-03-24T07:00:46;22.55;;;11.45;;
43509;SDS011;29105;57.764;40.952;2023-03-24T07:03:14;21.85;;;11.00;;
43509;SDS011;29105;57.764;40.952;2023-03-24T07:05:40;27.15;;;10.70;;
43509;SDS011;29105;57.764;40.952;2023-03-24T07:08:07;24.17;;;11.15;;
43509;SDS011;29105;57.764;40.952;2023-03-24T07:10:34;23.08;;;10.73;;
43509;SDS011;29105;57.764;40.952;2023-03-24T07:13:00;20.70;;;10.13;;
43509;SDS011;29105;57.764;40.952;2023-03-24T07:15:27;22.30;;;10.25;;
43509;SDS011;29105;57.764;40.952;2023-03-24T07:17:54;20.85;;;9.93;;
43509;SDS011;29105;57.764;40.952;2023-03-24T07:20:19;24.75;;;10.95;;
43509;SDS011;29105;57.764;40.952;2023-03-24T07:22:45;20.25;;;9.93;;
43509;SDS011;29105;57.764;40.952;2023-03-24T07:25:11;23.10;;;9.70;;
43509;SDS011;29105;57.764;40.952;2023-03-24T07:27:38;22.55;;;9.73;;
43509;SDS011;29105;57.764;40.952;2023-03-24T07:30:05;28.48;;;11.77;;
43509;SDS011;29105;57.764;40.952;2023-03-24T07:32:32;21.58;;;10.63;;
43509;SDS011;29105;57.764;40.952;2023-03-24T07:35:10;21.13;;;10.18;;
43509;SDS011;29105;57.764;40.952;2023-03-24T07:37:37;24.65;;;11.00;;
43509;SDS011;29105;57.764;40.952;2023-03-24T07:40:03;20.98;;;9.73;;
43509;SDS011;29105;57.764;40.952;2023-03-24T07:42:31;23.48;;;10.75;;
43509;SDS011;29105;57.764;40.952;2023-03-24T07:44:57;19.95;;;10.45;;
43509;SDS011;29105;57.764;40.952;2023-03-24T07:47:22;22.45;;;10.07;;
43509;SDS011;29105;57.764;40.952;2023-03-24T07:49:48;21.05;;;10.10;;
43509;SDS011;29105;57.764;40.952;2023-03-24T07:52:14;19.15;;;9.45;;
43509;SDS011;29105;57.764;40.952;2023-03-24T07:54:39;20.98;;;9.85;;
43509;SDS011;29105;57.764;40.952;2023-03-24T07:57:05;19.35;;;8.93;;
43509;SDS011;29105;57.764;40.952;2023-03-24T07:59:31;19.48;;;9.45;;
43509;SDS011;29105;57.764;40.952;2023-03-24T08:01:58;23.55;;;9.73;;
43509;SDS011;29105;57.764;40.952;2023-03-24T08:04:24;20.45;;;10.05;;
43509;SDS011;29105;57.764;40.952;2023-03-24T08:06:51;21.08;;;9.25;;
43509;SDS011;29105;57.764;40.952;2023-03-24T08:09:17;21.83;;;8.85;;
43509;SDS011;29105;57.764;40.952;2023-03-24T08:11:44;23.40;;;10.00;;
43509;SDS011;29105;57.764;40.952;2023-03-24T08:14:10;20.88;;;9.57;;
43509;SDS011;29105;57.764;40.952;2023-03-24T08:16:35;20.95;;;10.13;;
43509;SDS011;29105;57.764;40.952;2023-03-24T08:19:03;21.25;;;9.90;;
43509;SDS011;29105;57.764;40.952;2023-03-24T08:21:29;23.80;;;10.35;;
43509;SDS011;29105;57.764;40.952;2023-03-24T08:23:55;20.02;;;10.15;;
43509;SDS011;29105;57.764;40.952;2023-03-24T08:26:20;18.02;;;8.48;;
43509;SDS011;29105;57.764;40.952;2023-03-24T08:28:46;20.88;;;10.55;;
43509;SDS011;29105;57.764;40.952;2023-03-24T08:31:13;21.88;;;10.70;;
43509;SDS011;29105;57.764;40.952;2023-03-24T08:33:39;22.60;;;10.32;;
43509;SDS011;29105;57.764;40.952;2023-03-24T08:36:05;23.98;;;11.38;;
43509;SDS011;29105;57.764;40.952;2023-03-24T08:38:32;24.50;;;9.50;;
43509;SDS011;29105;57.764;40.952;2023-03-24T08:41:01;24.75;;;10.52;;
43509;SDS011;29105;57.764;40.952;2023-03-24T08:43:30;21.45;;;10.25;;
43509;SDS011;29105;57.764;40.952;2023-03-24T08:45:58;21.80;;;9.70;;
43509;SDS011;29105;57.764;40.952;2023-03-24T08:48:25;21.98;;;11.15;;
43509;SDS011;29105;57.764;40.952;2023-03-24T08:50:52;23.38;;;11.00;;
43509;SDS011;29105;57.764;40.952;2023-03-24T08:53:18;25.98;;;10.73;;
43509;SDS011;29105;57.764;40.952;2023-03-24T08:55:43;21.45;;;10.35;;
43509;SDS011;29105;57.764;40.952;2023-03-24T08:58:19;21.08;;;9.55;;
43509;SDS011;29105;57.764;40.952;2023-03-24T09:00:45;27.73;;;10.90;;
43509;SDS011;29105;57.764;40.952;2023-03-24T09:03:13;25.73;;;11.90;;
43509;SDS011;29105;57.764;40.952;2023-03-24T09:05:42;22.58;;;11.40;;
43509;SDS011;29105;57.764;40.952;2023-03-24T09:08:08;21.38;;;11.15;;
43509;SDS011;29105;57.764;40.952;2023-03-24T09:10:34;22.95;;;10.30;;
43509;SDS011;29105;57.764;40.952;2023-03-24T09:13:00;22.67;;;11.57;;
43509;SDS011;29105;57.764;40.952;2023-03-24T09:15:26;22.75;;;10.52;;
43509;SDS011;29105;57.764;40.952;2023-03-24T09:17:51;22.00;;;10.60;;
43509;SDS011;29105;57.764;40.952;2023-03-24T09:20:17;23.58;;;11.13;;
43509;SDS011;29105;57.764;40.952;2023-03-24T09:22:44;24.65;;;11.02;;
43509;SDS011;29105;57.764;40.952;2023-03-24T09:25:11;23.33;;;11.02;;
43509;SDS011;29105;57.764;40.952;2023-03-24T09:27:38;22.30;;;10.77;;
43509;SDS011;29105;57.764;40.952;2023-03-24T09:30:04;20.55;;;9.93;;
43509;SDS011;29105;57.764;40.952;2023-03-24T09:32:31;25.75;;;10.82;;
43509;SDS011;29105;57.764;40.952;2023-03-24T09:34:58;24.33;;;9.85;;
43509;SDS011;29105;57.764;40.952;2023-03-24T09:37:24;28.13;;;11.07;;
43509;SDS011;29105;57.764;40.952;2023-03-24T09:39:50;25.55;;;11.90;;
43509;SDS011;29105;57.764;40.952;2023-03-24T09:42:19;20.85;;;9.75;;
43509;SDS011;29105;57.764;40.952;2023-03-24T09:44:47;21.35;;;10.32;;
43509;SDS011;29105;57.764;40.952;2023-03-24T09:47:35;25.83;;;9.73;;
43509;SDS011;29105;57.764;40.952;2023-03-24T09:50:06;25.85;;;11.93;;
43509;SDS011;29105;57.764;40.952;2023-03-24T09:52:38;22.27;;;10.13;;
43509;SDS011;29105;57.764;40.952;2023-03-24T09:55:09;23.60;;;10.70;;
43509;SDS011;29105;57.764;40.952;2023-03-24T09:57:39;25.23;;;11.38;;
43509;SDS011;29105;57.764;40.952;2023-03-24T10:00:20;23.27;;;10.02;;
43509;SDS011;29105;57.764;40.952;2023-03-24T10:02:48;24.88;;;10.75;;
43509;SDS011;29105;57.764;40.952;2023-03-24T10:05:15;19.80;;;10.15;;
43509;SDS011;29105;57.764;40.952;2023-03-24T10:11:02;35.58;;;17.10;;
43509;SDS011;29105;57.764;40.952;2023-03-24T10:21:54;32.50;;;17.05;;
43509;SDS011;29105;57.764;40.952;2023-03-24T10:27:16;32.33;;;17.02;;
43509;SDS011;29105;57.764;40.952;2023-03-24T10:32:25;37.85;;;18.20;;
43509;SDS011;29105;57.764;40.952;2023-03-24T10:34:58;41.60;;;20.42;;
43509;SDS011;29105;57.764;40.952;2023-03-24T10:37:31;39.25;;;16.75;;
43509;SDS011;29105;57.764;40.952;2023-03-24T10:39:57;36.00;;;16.85;;
43509;SDS011;29105;57.764;40.952;2023-03-24T10:42:25;48.03;;;19.42;;
43509;SDS011;29105;57.764;40.952;2023-03-24T10:44:55;51.78;;;22.48;;
43509;SDS011;29105;57.764;40.952;2023-03-24T10:47:24;40.30;;;20.02;;
43509;SDS011;29105;57.764;40.952;2023-03-24T10:49:53;34.15;;;18.98;;
43509;SDS011;29105;57.764;40.952;2023-03-24T10:52:20;54.00;;;21.02;;
43509;SDS011;29105;57.764;40.952;2023-03-24T10:54:55;50.20;;;21.13;;
43509;SDS011;29105;57.764;40.952;2023-03-24T10:57:23;43.10;;;21.80;;
43509;SDS011;29105;57.764;40.952;2023-03-24T10:59:52;35.53;;;15.70;;
43509;SDS011;29105;57.764;40.952;2023-03-24T11:02:29;40.60;;;20.50;;
43509;SDS011;29105;57.764;40.952;2023-03-24T11:04:56;39.35;;;19.10;;
43509;SDS011;29105;57.764;40.952;2023-03-24T11:07:28;41.00;;;19.63;;
43509;SDS011;29105;57.764;40.952;2023-03-24T11:12:43;42.70;;;21.48;;
43509;SDS011;29105;57.764;40.952;2023-03-24T11:15:31;48.05;;;21.55;;
43509;SDS011;29105;57.764;40.952;2023-03-24T11:17:59;42.33;;;17.38;;
43509;SDS011;29105;57.764;40.952;2023-03-24T11:20:43;46.63;;;21.77;;
43509;SDS011;29105;57.764;40.952;2023-03-24T11:28:39;46.53;;;19.40;;
43509;SDS011;29105;57.764;40.952;2023-03-24T11:31:10;47.60;;;20.55;;
43509;SDS011;29105;57.764;40.952;2023-03-24T11:34:16;40.35;;;18.58;;
43509;SDS011;29105;57.764;40.952;2023-03-24T11:37:02;41.25;;;20.83;;
43509;SDS011;29105;57.764;40.952;2023-03-24T11:39:31;37.83;;;20.10;;
43509;SDS011;29105;57.764;40.952;2023-03-24T11:47:12;34.78;;;17.48;;
43509;SDS011;29105;57.764;40.952;2023-03-24T11:49:47;32.90;;;14.55;;
43509;SDS011;29105;57.764;40.952;2023-03-24T11:52:19;33.38;;;16.48;;
43509;SDS011;29105;57.764;40.952;2023-03-24T11:54:47;33.17;;;18.17;;
43509;SDS011;29105;57.764;40.952;2023-03-24T11:57:14;43.08;;;22.42;;
43509;SDS011;29105;57.764;40.952;2023-03-24T11:59:56;48.42;;;20.52;;
43509;SDS011;29105;57.764;40.952;2023-03-24T12:05:09;38.45;;;21.17;;
43509;SDS011;29105;57.764;40.952;2023-03-24T12:10:43;40.75;;;21.52;;
43509;SDS011;29105;57.764;40.952;2023-03-24T12:16:09;34.88;;;19.50;;
43509;SDS011;29105;57.764;40.952;2023-03-24T12:19:31;36.92;;;20.35;;
43509;SDS011;29105;57.764;40.952;2023-03-24T12:39:34;33.63;;;19.08;;
43509;SDS011;29105;57.764;40.952;2023-03-24T12:42:11;36.50;;;18.60;;
43509;SDS011;29105;57.764;40.952;2023-03-24T12:52:59;30.58;;;16.73;;
43509;SDS011;29105;57.764;40.952;2023-03-24T12:58:55;40.72;;;18.65;;
43509;SDS011;29105;57.764;40.952;2023-03-24T13:04:16;32.05;;;16.42;;
43509;SDS011;29105;57.764;40.952;2023-03-24T13:09:42;34.28;;;19.42;;
43509;SDS011;29105;57.764;40.952;2023-03-24T13:14:45;42.85;;;21.05;;
43509;SDS011;29105;57.764;40.952;2023-03-24T13:17:32;41.63;;;22.25;;
43509;SDS011;29105;57.764;40.952;2023-03-24T13:20:04;38.38;;;20.80;;
43509;SDS011;29105;57.764;40.952;2023-03-24T13:22:33;48.42;;;23.38;;
43509;SDS011;29105;57.764;40.952;2023-03-24T13:24:59;48.85;;;22.25;;
43509;SDS011;29105;57.764;40.952;2023-03-24T13:27:27;39.45;;;21.65;;
43509;SDS011;29105;57.764;40.952;2023-03-24T13:32:46;38.17;;;20.15;;
43509;SDS011;29105;57.764;40.952;2023-03-24T13:38:53;46.38;;;23.23;;
43509;SDS011;29105;57.764;40.952;2023-03-24T13:41:02;43.67;;;22.02;;
43509;SDS011;29105;57.764;40.952;2023-03-24T13:43:29;45.85;;;24.00;;
43509;SDS011;29105;57.764;40.952;2023-03-24T13:46:00;44.30;;;21.60;;
43509;SDS011;29105;57.764;40.952;2023-03-24T13:51:11;48.05;;;25.20;;
43509;SDS011;29105;57.764;40.952;2023-03-24T13:53:51;45.53;;;23.88;;
43509;SDS011;29105;57.764;40.952;2023-03-24T13:56:26;54.45;;;25.58;;
43509;SDS011;29105;57.764;40.952;2023-03-24T14:01:39;58.88;;;27.45;;
43509;SDS011;29105;57.764;40.952;2023-03-24T14:06:45;66.45;;;25.30;;
43509;SDS011;29105;57.764;40.952;2023-03-24T14:09:34;74.88;;;30.13;;
43509;SDS011;29105;57.764;40.952;2023-03-24T14:12:24;82.07;;;26.27;;
43509;SDS011;29105;57.764;40.952;2023-03-24T14:17:47;71.50;;;30.02;;
43509;SDS011;29105;57.764;40.952;2023-03-24T14:20:33;69.43;;;26.50;;
43509;SDS011;29105;57.764;40.952;2023-03-24T14:23:00;96.45;;;25.23;;
43509;SDS011;29105;57.764;40.952;2023-03-24T14:25:31;82.00;;;27.40;;
43509;SDS011;29105;57.764;40.952;2023-03-24T14:28:13;87.75;;;30.95;;
43509;SDS011;29105;57.764;40.952;2023-03-24T14:33:24;99.85;;;31.92;;
43509;SDS011;29105;57.764;40.952;2023-03-24T14:35:50;106.75;;;28.42;;
43509;SDS011;29105;57.764;40.952;2023-03-24T14:38:23;90.13;;;23.00;;
43509;SDS011;29105;57.764;40.952;2023-03-24T14:40:51;88.85;;;22.48;;
43509;SDS011;29105;57.764;40.952;2023-03-24T14:48:31;97.00;;;22.58;;
43509;SDS011;29105;57.764;40.952;2023-03-24T14:51:20;165.43;;;29.30;;
43509;SDS011;29105;57.764;40.952;2023-03-24T14:53:57;119.88;;;23.23;;
43509;SDS011;29105;57.764;40.952;2023-03-24T14:56:23;107.40;;;25.52;;
43509;SDS011;29105;57.764;40.952;2023-03-24T14:58:55;134.85;;;22.42;;
43509;SDS011;29105;57.764;40.952;2023-03-24T15:01:29;96.75;;;21.55;;
43509;SDS011;29105;57.764;40.952;2023-03-24T15:04:01;166.13;;;27.90;;
43509;SDS011;29105;57.764;40.952;2023-03-24T15:06:31;129.18;;;20.88;;
43509;SDS011;29105;57.764;40.952;2023-03-24T15:08:59;95.18;;;20.90;;
43509;SDS011;29105;57.764;40.952;2023-03-24T15:11:32;139.10;;;32.95;;
43509;SDS011;29105;57.764;40.952;2023-03-24T15:13:59;219.90;;;39.63;;
43509;SDS011;29105;57.764;40.952;2023-03-24T15:16:50;121.57;;;33.58;;
43509;SDS011;29105;57.764;40.952;2023-03-24T15:19:26;298.88;;;63.95;;
43509;SDS011;29105;57.764;40.952;2023-03-24T15:22:00;329.05;;;77.38;;
43509;SDS011;29105;57.764;40.952;2023-03-24T15:24:31;326.50;;;86.18;;
43509;SDS011;29105;57.764;40.952;2023-03-24T15:29:33;162.25;;;42.35;;
43509;SDS011;29105;57.764;40.952;2023-03-24T15:32:00;195.85;;;52.83;;
43509;SDS011;29105;57.764;40.952;2023-03-24T15:37:01;128.48;;;38.53;;
43509;SDS011;29105;57.764;40.952;2023-03-24T15:39:36;97.78;;;29.35;;
43509;SDS011;29105;57.764;40.952;2023-03-24T15:42:13;70.35;;;20.98;;
43509;SDS011;29105;57.764;40.952;2023-03-24T15:44:40;72.78;;;20.80;;
43509;SDS011;29105;57.764;40.952;2023-03-24T15:47:11;70.65;;;20.00;;
43509;SDS011;29105;57.764;40.952;2023-03-24T15:49:59;87.63;;;22.48;;
43509;SDS011;29105;57.764;40.952;2023-03-24T15:52:35;104.32;;;20.60;;
43509;SDS011;29105;57.764;40.952;2023-03-24T15:57:50;165.07;;;25.67;;
43509;SDS011;29105;57.764;40.952;2023-03-24T16:00:22;176.45;;;32.65;;
43509;SDS011;29105;57.764;40.952;2023-03-24T16:02:52;105.00;;;17.80;;
43509;SDS011;29105;57.764;40.952;2023-03-24T16:07:52;145.93;;;22.52;;
43509;SDS011;29105;57.764;40.952;2023-03-24T16:13:14;163.00;;;25.25;;
43509;SDS011;29105;57.764;40.952;2023-03-24T16:18:22;203.45;;;32.22;;
43509;SDS011;29105;57.764;40.952;2023-03-24T16:20:53;50.45;;;17.90;;
43509;SDS011;29105;57.764;40.952;2023-03-24T16:23:19;43.92;;;14.68;;
43509;SDS011;29105;57.764;40.952;2023-03-24T16:25:45;68.82;;;17.42;;
43509;SDS011;29105;57.764;40.952;2023-03-24T16:28:11;42.25;;;17.85;;
43509;SDS011;29105;57.764;40.952;2023-03-24T16:30:38;39.15;;;19.70;;
43509;SDS011;29105;57.764;40.952;2023-03-24T16:33:05;38.72;;;18.65;;
43509;SDS011;29105;57.764;40.952;2023-03-24T16:35:31;38.97;;;20.25;;
43509;SDS011;29105;57.764;40.952;2023-03-24T16:37:58;30.00;;;15.90;;
43509;SDS011;29105;57.764;40.952;2023-03-24T16:40:30;29.70;;;14.00;;
43509;SDS011;29105;57.764;40.952;2023-03-24T16:43:00;19.50;;;10.98;;
43509;SDS011;29105;57.764;40.952;2023-03-24T16:45:27;20.88;;;10.48;;
43509;SDS011;29105;57.764;40.952;2023-03-24T16:47:53;18.38;;;11.02;;
43509;SDS011;29105;57.764;40.952;2023-03-24T16:50:41;11.23;;;6.68;;
43509;SDS011;29105;57.764;40.952;2023-03-24T16:53:06;13.80;;;7.40;;
43509;SDS011;29105;57.764;40.952;2023-03-24T16:55:33;18.63;;;10.38;;
43509;SDS011;29105;57.764;40.952;2023-03-24T16:58:00;19.15;;;10.40;;
43509;SDS011;29105;57.764;40.952;2023-03-24T17:00:26;14.40;;;7.13;;
43509;SDS011;29105;57.764;40.952;2023-03-24T17:02:57;17.67;;;9.95;;
43509;SDS011;29105;57.764;40.952;2023-03-24T17:05:25;13.40;;;6.55;;
43509;SDS011;29105;57.764;40.952;2023-03-24T17:07:53;16.48;;;7.63;;
43509;SDS011;29105;57.764;40.952;2023-03-24T17:10:20;15.38;;;9.60;;
43509;SDS011;29105;57.764;40.952;2023-03-24T17:12:47;13.75;;;8.00;;
43509;SDS011;29105;57.764;40.952;2023-03-24T17:15:23;13.85;;;7.75;;
43509;SDS011;29105;57.764;40.952;2023-03-24T17:17:51;16.45;;;10.45;;